createdAt,value
2022-12-03T17:32:57.701Z,23.27
2022-12-03T17:35:25.151Z,24.40
2022-12-03T17:37:51.838Z,24.95
2022-12-03T17:40:18.807Z,23.73
2022-12-03T17:42:46.004Z,24.00
2022-12-03T17:45:13.063Z,23.65
2022-12-03T17:47:40.008Z,23.27
2022-12-03T17:50:09.226Z,23.85
2022-12-03T17:52:36.269Z,22.87
2022-12-03T17:55:13.226Z,22.02
2022-12-03T17:57:42.976Z,22.98
2022-12-03T18:00:11.195Z,22.13
2022-12-03T18:02:37.989Z,21.48
2022-12-03T18:05:05.668Z,24.00
2022-12-03T18:07:34.174Z,29.30
2022-12-03T18:10:49.997Z,41.92
2022-12-03T18:13:16.411Z,38.90
2022-12-03T18:15:42.783Z,37.28
2022-12-03T18:18:09.644Z,36.50
2022-12-03T18:20:36.062Z,37.28
2022-12-03T18:25:17.592Z,36.45
2022-12-03T18:27:46.523Z,34.88
2022-12-03T18:30:13.350Z,35.80
2022-12-03T18:32:39.952Z,33.58
2022-12-03T18:35:06.741Z,33.67
2022-12-03T18:37:34.079Z,32.92
2022-12-03T18:40:01.269Z,33.05
2022-12-03T18:42:28.171Z,33.43
2022-12-03T18:44:56.673Z,32.63
2022-12-03T18:47:26.756Z,31.15
2022-12-03T18:49:54.090Z,31.17
2022-12-03T18:52:22.647Z,30.88
2022-12-03T18:54:51.023Z,31.47
2022-12-03T18:57:18.353Z,30.52
2022-12-03T18:59:45.478Z,29.85
2022-12-03T19:02:53.826Z,28.95
2022-12-03T19:05:08.700Z,28.88
2022-12-03T19:07:35.827Z,28.73
2022-12-03T19:10:03.367Z,27.92
2022-12-03T19:12:31.565Z,27.90
2022-12-03T19:14:58.553Z,27.83
2022-12-03T19:17:27.416Z,27.27
2022-12-03T19:19:55.335Z,26.53
2022-12-03T19:22:22.522Z,27.67
2022-12-03T19:24:50.591Z,26.70
2022-12-03T19:27:17.355Z,25.50
2022-12-03T19:29:44.730Z,25.67
2022-12-03T19:33:32.265Z,26.48
2022-12-03T19:36:00.646Z,26.38
2022-12-03T19:38:29.379Z,27.33
2022-12-03T19:41:07.420Z,25.97
2022-12-03T19:43:36.930Z,26.48
2022-12-03T19:46:11.543Z,26.55
2022-12-03T19:48:39.923Z,25.38
2022-12-03T19:51:32.923Z,24.92
2022-12-03T19:53:55.877Z,24.90
2022-12-03T19:56:23.433Z,25.63
2022-12-03T19:58:55.189Z,25.05
2022-12-03T20:01:25.327Z,23.75
2022-12-03T20:03:55.003Z,22.98
2022-12-03T20:06:24.839Z,24.17
2022-12-03T20:09:03.668Z,24.10
2022-12-03T20:11:32.577Z,25.23
2022-12-03T20:14:02.367Z,25.40
2022-12-03T20:16:30.247Z,25.35
2022-12-03T20:19:00.311Z,27.43
2022-12-03T20:21:30.314Z,26.85
2022-12-03T20:23:57.711Z,27.30
2022-12-03T20:26:25.178Z,25.83
2022-12-03T20:28:54.567Z,26.77
2022-12-03T20:31:24.478Z,28.20
2022-12-03T20:33:54.586Z,26.48
2022-12-03T20:36:23.126Z,26.38
2022-12-03T20:38:55.538Z,26.45
2022-12-03T20:41:22.837Z,26.17
2022-12-03T20:43:49.881Z,26.97
2022-12-03T20:46:22.022Z,26.67
2022-12-03T20:48:49.321Z,26.25
2022-12-03T20:51:20.458Z,25.58
2022-12-03T20:53:47.574Z,24.73
2022-12-03T20:56:25.304Z,25.50
2022-12-03T20:58:53.783Z,25.30
2022-12-03T21:01:26.797Z,26.70
2022-12-03T21:03:56.127Z,26.00
2022-12-03T21:06:25.587Z,25.42
2022-12-03T21:08:54.506Z,27.17
2022-12-03T21:11:24.695Z,26.67
2022-12-03T21:13:53.594Z,25.10
2022-12-03T21:16:45.433Z,25.85
2022-12-03T21:19:12.248Z,25.17
2022-12-03T21:21:39.191Z,26.63
2022-12-03T21:24:06.234Z,25.85
2022-12-03T21:26:32.930Z,24.45
2022-12-03T21:28:59.524Z,27.38
2022-12-03T21:31:26.784Z,24.73
2022-12-03T21:33:55.333Z,25.30
2022-12-03T21:36:23.191Z,26.58
2022-12-03T21:38:50.405Z,25.00
2022-12-03T21:41:18.137Z,24.60
2022-12-03T21:43:44.941Z,24.77
2022-12-03T21:47:11.821Z,24.90
2022-12-03T21:49:02.064Z,25.63
2022-12-03T21:51:28.873Z,24.00
2022-12-03T21:53:55.537Z,23.88
2022-12-03T21:56:22.145Z,24.52
2022-12-03T21:58:48.835Z,24.17
2022-12-03T22:01:23.676Z,25.05
2022-12-03T22:03:50.998Z,24.08
2022-12-03T22:06:18.471Z,24.67
2022-12-03T22:08:45.138Z,23.75
2022-12-03T22:11:15.137Z,25.13
2022-12-03T22:13:42.101Z,23.88
2022-12-03T22:16:12.805Z,24.23
2022-12-03T22:18:39.594Z,23.40
2022-12-03T22:21:12.285Z,22.88
2022-12-03T22:23:39.751Z,22.50
2022-12-03T22:26:10.772Z,23.63
2022-12-03T22:28:37.644Z,23.42
2022-12-03T22:31:08.636Z,22.02
2022-12-03T22:33:36.588Z,21.80
2022-12-03T22:36:14.645Z,23.63
2022-12-03T22:38:45.204Z,23.15
2022-12-03T22:41:13.364Z,21.33
2022-12-03T22:43:40.288Z,21.55
2022-12-03T22:46:12.823Z,21.67
2022-12-03T22:48:46.277Z,21.27
2022-12-03T22:51:24.618Z,22.52
2022-12-03T22:53:56.888Z,21.02
2022-12-03T22:56:24.522Z,21.90
2022-12-03T22:58:51.705Z,21.15
2022-12-03T23:01:25.721Z,20.27
2022-12-03T23:03:52.677Z,21.95
2022-12-03T23:06:20.029Z,22.63
2022-12-03T23:08:46.700Z,21.25
2022-12-03T23:11:13.900Z,22.13
2022-12-03T23:13:40.466Z,20.13
2022-12-03T23:16:07.669Z,21.33
2022-12-03T23:18:34.523Z,22.38
2022-12-03T23:21:01.105Z,21.55
2022-12-03T23:23:28.391Z,21.73
2022-12-03T23:26:06.860Z,20.73
2022-12-03T23:28:36.837Z,22.50
2022-12-03T23:31:05.127Z,23.75
2022-12-03T23:33:37.909Z,22.98
2022-12-03T23:36:06.645Z,20.10
2022-12-03T23:38:33.354Z,21.57
2022-12-03T23:41:15.211Z,20.80
2022-12-03T23:43:42.043Z,22.23
2022-12-03T23:46:11.174Z,22.67
2022-12-03T23:48:38.553Z,22.40
2022-12-03T23:51:09.623Z,21.57
2022-12-03T23:53:37.231Z,20.90
2022-12-03T23:56:15.145Z,22.38
2022-12-03T23:58:42.225Z,21.35
